sensor_id;sensor_type;location;lat;lon;timestamp;pressure;altitude;pressure_sealevel;temperature
37414;BMP280;23279;46.472;30.760;2023-06-14T00:02:11;75084.78;;;-146.33
37414;BMP280;23279;46.472;30.760;2023-06-14T00:04:36;75090.91;;;-146.33
37414;BMP280;23279;46.472;30.760;2023-06-14T00:07:04;75103.09;;;-146.33
37414;BMP280;23279;46.472;30.760;2023-06-14T00:09:29;75131.56;;;-146.33
37414;BMP280;23279;46.472;30.760;2023-06-14T00:11:55;75145.78;;;-146.33
37414;BMP280;23279;46.472;30.760;2023-06-14T00:14:20;75176.28;;;-146.33
37414;BMP280;23279;46.472;30.760;2023-06-14T00:16:46;75237.25;;;-146.33
37414;BMP280;23279;46.472;30.760;2023-06-14T00:19:11;75277.94;;;-146.33
37414;BMP280;23279;46.472;30.760;2023-06-14T00:21:37;75310.44;;;-146.33
37414;BMP280;23279;46.472;30.760;2023-06-14T00:24:03;75347.03;;;-146.33
37414;BMP280;23279;46.472;30.760;2023-06-14T00:26:29;75355.19;;;-146.33
37414;BMP280;23279;46.472;30.760;2023-06-14T00:28:55;75375.50;;;-146.33
37414;BMP280;23279;46.472;30.760;2023-06-14T00:31:22;75397.88;;;-146.33
37414;BMP280;23279;46.472;30.760;2023-06-14T00:33:47;75424.31;;;-146.33
37414;BMP280;23279;46.472;30.760;2023-06-14T00:36:13;75434.47;;;-146.33
37414;BMP280;23279;46.472;30.760;2023-06-14T00:38:39;75454.78;;;-146.33
37414;BMP280;23279;46.472;30.760;2023-06-14T00:41:04;75456.84;;;-146.33
37414;BMP280;23279;46.472;30.760;2023-06-14T00:43:30;75434.47;;;-146.33
37414;BMP280;23279;46.472;30.760;2023-06-14T00:45:55;75426.34;;;-146.33
37414;BMP280;23279;46.472;30.760;2023-06-14T00:48:21;75432.44;;;-146.33
37414;BMP280;23279;46.472;30.760;2023-06-14T00:50:49;75436.50;;;-146.33
37414;BMP280;23279;46.472;30.760;2023-06-14T00:53:16;75422.25;;;-146.33
37414;BMP280;23279;46.472;30.760;2023-06-14T00:55:43;75416.16;;;-146.33
37414;BMP280;23279;46.472;30.760;2023-06-14T00:58:09;75403.97;;;-146.33
37414;BMP280;23279;46.472;30.760;2023-06-14T01:00:35;75355.19;;;-146.33
37414;BMP280;23279;46.472;30.760;2023-06-14T01:03:01;75355.19;;;-146.33
37414;BMP280;23279;46.472;30.760;2023-06-14T01:05:28;75330.78;;;-146.33
37414;BMP280;23279;46.472;30.760;2023-06-14T01:08:19;75330.78;;;-146.33
37414;BMP280;23279;46.472;30.760;2023-06-14T01:11:08;75326.72;;;-146.33
37414;BMP280;23279;46.472;30.760;2023-06-14T01:13:43;75310.44;;;-146.33
37414;BMP280;23279;46.472;30.760;2023-06-14T01:16:10;75279.97;;;-146.33
37414;BMP280;23279;46.472;30.760;2023-06-14T01:18:36;75286.06;;;-146.33
37414;BMP280;23279;46.472;30.760;2023-06-14T01:21:02;75326.72;;;-146.33
37414;BMP280;23279;46.472;30.760;2023-06-14T01:23:31;75306.38;;;-146.33
37414;BMP280;23279;46.472;30.760;2023-06-14T01:26:01;75296.22;;;-146.33
37414;BMP280;23279;46.472;30.760;2023-06-14T01:28:28;75314.53;;;-146.33
37414;BMP280;23279;46.472;30.760;2023-06-14T01:30:59;75286.06;;;-146.33
37414;BMP280;23279;46.472;30.760;2023-06-14T01:33:26;75312.47;;;-146.33
37414;BMP280;23279;46.472;30.760;2023-06-14T01:35:53;75300.28;;;-146.33
37414;BMP280;23279;46.472;30.760;2023-06-14T01:38:22;75288.09;;;-146.33
37414;BMP280;23279;46.472;30.760;2023-06-14T01:40:49;75296.22;;;-146.33
37414;BMP280;23279;46.472;30.760;2023-06-14T01:43:16;75294.19;;;-146.33
37414;BMP280;23279;46.472;30.760;2023-06-14T01:45:42;75306.38;;;-146.33
37414;BMP280;23279;46.472;30.760;2023-06-14T01:48:09;75310.44;;;-146.33
37414;BMP280;23279;46.472;30.760;2023-06-14T01:50:35;75334.84;;;-146.33
37414;BMP280;23279;46.472;30.760;2023-06-14T01:53:00;75342.97;;;-146.33
37414;BMP280;23279;46.472;30.760;2023-06-14T01:55:26;75328.75;;;-146.33
37414;BMP280;23279;46.472;30.760;2023-06-14T01:57:51;75296.22;;;-146.33
37414;BMP280;23279;46.472;30.760;2023-06-14T02:00:17;75277.94;;;-146.33
37414;BMP280;23279;46.472;30.760;2023-06-14T02:02:43;75282.00;;;-146.33
37414;BMP280;23279;46.472;30.760;2023-06-14T02:05:09;75296.22;;;-146.33
37414;BMP280;23279;46.472;30.760;2023-06-14T02:07:35;75306.38;;;-146.33
37414;BMP280;23279;46.472;30.760;2023-06-14T02:10:02;75324.69;;;-146.33
37414;BMP280;23279;46.472;30.760;2023-06-14T02:12:28;75351.13;;;-146.33
37414;BMP280;23279;46.472;30.760;2023-06-14T02:14:53;75347.03;;;-146.33
37414;BMP280;23279;46.472;30.760;2023-06-14T02:17:19;75363.31;;;-146.33
37414;BMP280;23279;46.472;30.760;2023-06-14T02:19:45;75361.28;;;-146.33
37414;BMP280;23279;46.472;30.760;2023-06-14T02:22:11;75371.44;;;-146.33
37414;BMP280;23279;46.472;30.760;2023-06-14T02:24:36;75377.53;;;-146.33
37414;BMP280;23279;46.472;30.760;2023-06-14T02:27:02;75391.78;;;-146.33
37414;BMP280;23279;46.472;30.760;2023-06-14T02:29:27;75408.03;;;-146.33
37414;BMP280;23279;46.472;30.760;2023-06-14T02:31:53;75412.09;;;-146.33
37414;BMP280;23279;46.472;30.760;2023-06-14T02:34:18;75416.16;;;-146.33
37414;BMP280;23279;46.472;30.760;2023-06-14T02:36:45;75436.50;;;-146.33
37414;BMP280;23279;46.472;30.760;2023-06-14T02:39:12;75432.44;;;-146.33
37414;BMP280;23279;46.472;30.760;2023-06-14T02:41:38;75432.44;;;-146.33
37414;BMP280;23279;46.472;30.760;2023-06-14T02:44:04;75399.91;;;-146.33
37414;BMP280;23279;46.472;30.760;2023-06-14T02:46:29;75397.88;;;-146.33
37414;BMP280;23279;46.472;30.760;2023-06-14T02:48:55;75395.84;;;-146.33
37414;BMP280;23279;46.472;30.760;2023-06-14T02:51:20;75408.03;;;-146.33
37414;BMP280;23279;46.472;30.760;2023-06-14T02:53:45;75391.78;;;-146.33
37414;BMP280;23279;46.472;30.760;2023-06-14T02:56:11;75379.56;;;-146.33
37414;BMP280;23279;46.472;30.760;2023-06-14T02:58:37;75393.81;;;-146.33
37414;BMP280;23279;46.472;30.760;2023-06-14T03:01:04;75397.88;;;-146.33
37414;BMP280;23279;46.472;30.760;2023-06-14T03:03:31;75430.41;;;-146.33
37414;BMP280;23279;46.472;30.760;2023-06-14T03:05:56;75446.66;;;-146.33
37414;BMP280;23279;46.472;30.760;2023-06-14T03:08:22;75458.88;;;-146.33
37414;BMP280;23279;46.472;30.760;2023-06-14T03:10:52;75489.34;;;-146.33
37414;BMP280;23279;46.472;30.760;2023-06-14T03:13:18;75497.50;;;-146.33
37414;BMP280;23279;46.472;30.760;2023-06-14T03:15:47;75489.34;;;-146.33
37414;BMP280;23279;46.472;30.760;2023-06-14T03:18:12;75473.09;;;-146.33
37414;BMP280;23279;46.472;30.760;2023-06-14T03:20:40;75477.16;;;-146.33
37414;BMP280;23279;46.472;30.760;2023-06-14T03:23:06;75469.03;;;-146.33
37414;BMP280;23279;46.472;30.760;2023-06-14T03:25:32;75487.31;;;-146.33
37414;BMP280;23279;46.472;30.760;2023-06-14T03:28:01;75505.63;;;-146.33
37414;BMP280;23279;46.472;30.760;2023-06-14T03:30:27;75521.88;;;-146.33
37414;BMP280;23279;46.472;30.760;2023-06-14T03:32:52;75548.31;;;-146.33
37414;BMP280;23279;46.472;30.760;2023-06-14T03:35:20;75572.72;;;-146.33
37414;BMP280;23279;46.472;30.760;2023-06-14T03:37:46;75603.22;;;-146.33
37414;BMP280;23279;46.472;30.760;2023-06-14T03:40:14;75637.78;;;-146.33
37414;BMP280;23279;46.472;30.760;2023-06-14T03:42:40;75613.38;;;-146.33
37414;BMP280;23279;46.472;30.760;2023-06-14T03:45:06;75619.47;;;-146.33
37414;BMP280;23279;46.472;30.760;2023-06-14T03:47:32;75637.78;;;-146.33
37414;BMP280;23279;46.472;30.760;2023-06-14T03:49:57;75710.97;;;-146.33
37414;BMP280;23279;46.472;30.760;2023-06-14T03:52:23;75719.09;;;-146.33
37414;BMP280;23279;46.472;30.760;2023-06-14T03:54:48;75759.78;;;-146.33
37414;BMP280;23279;46.472;30.760;2023-06-14T03:57:14;75818.75;;;-146.33
37414;BMP280;23279;46.472;30.760;2023-06-14T03:59:40;75875.69;;;-146.33
37414;BMP280;23279;46.472;30.760;2023-06-14T04:02:06;75959.03;;;-146.33
37414;BMP280;23279;46.472;30.760;2023-06-14T04:04:32;76022.09;;;-146.33
37414;BMP280;23279;46.472;30.760;2023-06-14T04:06:58;76070.88;;;-146.33
37414;BMP280;23279;46.472;30.760;2023-06-14T04:09:25;76097.31;;;-146.33
37414;BMP280;23279;46.472;30.760;2023-06-14T04:11:54;76093.25;;;-146.33
37414;BMP280;23279;46.472;30.760;2023-06-14T04:14:20;76087.16;;;-146.33
37414;BMP280;23279;46.472;30.760;2023-06-14T04:16:46;76081.06;;;-146.33
37414;BMP280;23279;46.472;30.760;2023-06-14T04:19:12;76058.69;;;-146.33
37414;BMP280;23279;46.472;30.760;2023-06-14T04:21:37;76030.22;;;-146.33
37414;BMP280;23279;46.472;30.760;2023-06-14T04:24:03;76022.09;;;-146.33
37414;BMP280;23279;46.472;30.760;2023-06-14T04:26:28;76015.97;;;-146.33
37414;BMP280;23279;46.472;30.760;2023-06-14T04:28:55;76005.81;;;-146.33
37414;BMP280;23279;46.472;30.760;2023-06-14T04:31:22;75995.66;;;-146.33
37414;BMP280;23279;46.472;30.760;2023-06-14T04:33:50;76015.97;;;-146.33
37414;BMP280;23279;46.472;30.760;2023-06-14T04:36:18;76050.56;;;-146.33
37414;BMP280;23279;46.472;30.760;2023-06-14T04:38:44;76066.81;;;-146.33
37414;BMP280;23279;46.472;30.760;2023-06-14T04:41:10;76091.22;;;-146.33
37414;BMP280;23279;46.472;30.760;2023-06-14T04:43:37;76125.78;;;-146.33
37414;BMP280;23279;46.472;30.760;2023-06-14T04:46:06;76113.59;;;-146.33
37414;BMP280;23279;46.472;30.760;2023-06-14T04:48:40;76111.56;;;-146.33
37414;BMP280;23279;46.472;30.760;2023-06-14T04:51:08;76121.72;;;-146.33
37414;BMP280;23279;46.472;30.760;2023-06-14T04:53:34;76103.44;;;-146.33
37414;BMP280;23279;46.472;30.760;2023-06-14T04:56:00;76083.09;;;-146.33
37414;BMP280;23279;46.472;30.760;2023-06-14T04:58:27;76050.56;;;-146.33
37414;BMP280;23279;46.472;30.760;2023-06-14T05:00:54;76040.38;;;-146.33
37414;BMP280;23279;46.472;30.760;2023-06-14T05:03:21;75983.44;;;-146.33
37414;BMP280;23279;46.472;30.760;2023-06-14T05:05:46;75965.16;;;-146.33
37414;BMP280;23279;46.472;30.760;2023-06-14T05:08:12;76001.75;;;-146.33
37414;BMP280;23279;46.472;30.760;2023-06-14T05:10:38;76038.34;;;-146.33
37414;BMP280;23279;46.472;30.760;2023-06-14T05:13:03;76074.97;;;-146.33
37414;BMP280;23279;46.472;30.760;2023-06-14T05:15:29;76099.34;;;-146.33
37414;BMP280;23279;46.472;30.760;2023-06-14T05:17:54;76133.94;;;-146.33
37414;BMP280;23279;46.472;30.760;2023-06-14T05:20:24;76176.63;;;-146.33
37414;BMP280;23279;46.472;30.760;2023-06-14T05:22:51;76203.06;;;-146.33
37414;BMP280;23279;46.472;30.760;2023-06-14T05:25:18;76213.25;;;-146.33
37414;BMP280;23279;46.472;30.760;2023-06-14T05:27:44;76288.47;;;-146.33
37414;BMP280;23279;46.472;30.760;2023-06-14T05:30:10;76351.53;;;-146.33
37414;BMP280;23279;46.472;30.760;2023-06-14T05:32:35;76349.50;;;-146.33
37414;BMP280;23279;46.472;30.760;2023-06-14T05:35:01;76371.88;;;-146.33
37414;BMP280;23279;46.472;30.760;2023-06-14T05:37:26;76416.59;;;-146.33
37414;BMP280;23279;46.472;30.760;2023-06-14T05:39:52;76489.81;;;-146.33
37414;BMP280;23279;46.472;30.760;2023-06-14T05:42:17;76508.13;;;-146.33
37414;BMP280;23279;46.472;30.760;2023-06-14T05:44:42;76506.09;;;-146.33
37414;BMP280;23279;46.472;30.760;2023-06-14T05:47:08;76510.16;;;-146.33
37414;BMP280;23279;46.472;30.760;2023-06-14T05:49:33;76463.38;;;-146.33
37414;BMP280;23279;46.472;30.760;2023-06-14T05:51:59;76485.75;;;-146.33
37414;BMP280;23279;46.472;30.760;2023-06-14T05:54:24;76497.97;;;-146.33
37414;BMP280;23279;46.472;30.760;2023-06-14T05:56:49;76514.22;;;-146.33
37414;BMP280;23279;46.472;30.760;2023-06-14T05:59:15;76510.16;;;-146.33
37414;BMP280;23279;46.472;30.760;2023-06-14T06:01:40;76526.44;;;-146.33
37414;BMP280;23279;46.472;30.760;2023-06-14T06:04:06;76567.09;;;-146.33
37414;BMP280;23279;46.472;30.760;2023-06-14T06:06:31;76571.19;;;-146.33
37414;BMP280;23279;46.472;30.760;2023-06-14T06:08:57;76605.75;;;-146.33
37414;BMP280;23279;46.472;30.760;2023-06-14T06:11:23;76587.44;;;-146.33
37414;BMP280;23279;46.472;30.760;2023-06-14T06:13:48;76587.44;;;-146.33
37414;BMP280;23279;46.472;30.760;2023-06-14T06:16:14;76577.28;;;-146.33
37414;BMP280;23279;46.472;30.760;2023-06-14T06:18:40;76573.22;;;-146.33
37414;BMP280;23279;46.472;30.760;2023-06-14T06:21:05;76579.31;;;-146.33
37414;BMP280;23279;46.472;30.760;2023-06-14T06:23:31;76550.84;;;-146.33
37414;BMP280;23279;46.472;30.760;2023-06-14T06:25:57;76556.94;;;-146.33
37414;BMP280;23279;46.472;30.760;2023-06-14T06:28:22;76520.34;;;-146.33
37414;BMP280;23279;46.472;30.760;2023-06-14T06:30:47;76477.63;;;-146.33
37414;BMP280;23279;46.472;30.760;2023-06-14T06:33:13;76485.75;;;-146.33
37414;BMP280;23279;46.472;30.760;2023-06-14T06:35:39;76518.28;;;-146.33
37414;BMP280;23279;46.472;30.760;2023-06-14T06:38:05;76491.84;;;-146.33
37414;BMP280;23279;46.472;30.760;2023-06-14T06:40:30;76526.44;;;-146.33
37414;BMP280;23279;46.472;30.760;2023-06-14T06:42:55;76554.91;;;-146.33
37414;BMP280;23279;46.472;30.760;2023-06-14T06:45:21;76611.84;;;-146.33
37414;BMP280;23279;46.472;30.760;2023-06-14T06:47:48;76632.19;;;-146.33
37414;BMP280;23279;46.472;30.760;2023-06-14T06:50:13;76685.06;;;-146.33
37414;BMP280;23279;46.472;30.760;2023-06-14T06:52:39;76660.66;;;-146.33
37414;BMP280;23279;46.472;30.760;2023-06-14T06:55:05;76681.00;;;-146.33
37414;BMP280;23279;46.472;30.760;2023-06-14T06:57:31;76705.41;;;-146.33
37414;BMP280;23279;46.472;30.760;2023-06-14T06:59:57;76725.75;;;-146.33
37414;BMP280;23279;46.472;30.760;2023-06-14T07:02:22;76737.97;;;-146.33
37414;BMP280;23279;46.472;30.760;2023-06-14T07:04:47;76768.47;;;-146.33
37414;BMP280;23279;46.472;30.760;2023-06-14T07:07:13;76754.22;;;-146.33
37414;BMP280;23279;46.472;30.760;2023-06-14T07:09:38;76764.41;;;-146.33
37414;BMP280;23279;46.472;30.760;2023-06-14T07:12:04;76798.97;;;-146.33
37414;BMP280;23279;46.472;30.760;2023-06-14T07:14:30;76853.91;;;-146.33
37414;BMP280;23279;46.472;30.760;2023-06-14T07:16:55;76904.75;;;-146.33
37414;BMP280;23279;46.472;30.760;2023-06-14T07:19:21;76900.69;;;-146.33
37414;BMP280;23279;46.472;30.760;2023-06-14T07:21:46;76884.41;;;-146.33
37414;BMP280;23279;46.472;30.760;2023-06-14T07:24:13;76900.69;;;-146.33
37414;BMP280;23279;46.472;30.760;2023-06-14T07:26:38;76914.94;;;-146.33
37414;BMP280;23279;46.472;30.760;2023-06-14T07:29:03;76927.13;;;-146.33
37414;BMP280;23279;46.472;30.760;2023-06-14T07:31:29;76951.53;;;-146.33
37414;BMP280;23279;46.472;30.760;2023-06-14T07:33:55;76955.59;;;-146.33
37414;BMP280;23279;46.472;30.760;2023-06-14T07:36:20;76943.41;;;-146.33
37414;BMP280;23279;46.472;30.760;2023-06-14T07:38:46;76945.44;;;-146.33
37414;BMP280;23279;46.472;30.760;2023-06-14T07:41:11;76961.72;;;-146.33
37414;BMP280;23279;46.472;30.760;2023-06-14T07:43:37;77002.41;;;-146.33
37414;BMP280;23279;46.472;30.760;2023-06-14T07:46:02;77016.63;;;-146.33
37414;BMP280;23279;46.472;30.760;2023-06-14T07:48:28;77022.75;;;-146.33
37414;BMP280;23279;46.472;30.760;2023-06-14T07:50:54;77047.16;;;-146.33
37414;BMP280;23279;46.472;30.760;2023-06-14T07:53:19;77061.38;;;-146.33
37414;BMP280;23279;46.472;30.760;2023-06-14T07:55:45;77051.22;;;-146.33
37414;BMP280;23279;46.472;30.760;2023-06-14T07:58:12;77055.28;;;-146.33
37414;BMP280;23279;46.472;30.760;2023-06-14T08:00:38;77030.88;;;-146.33
37414;BMP280;23279;46.472;30.760;2023-06-14T08:03:03;76986.13;;;-146.33
37414;BMP280;23279;46.472;30.760;2023-06-14T08:05:29;76973.91;;;-146.33
37414;BMP280;23279;46.472;30.760;2023-06-14T08:07:55;76965.78;;;-146.33
37414;BMP280;23279;46.472;30.760;2023-06-14T08:10:21;76951.53;;;-146.33
37414;BMP280;23279;46.472;30.760;2023-06-14T08:12:46;76953.56;;;-146.33
37414;BMP280;23279;46.472;30.760;2023-06-14T08:15:13;76996.28;;;-146.33
37414;BMP280;23279;46.472;30.760;2023-06-14T08:17:39;77010.53;;;-146.33
37414;BMP280;23279;46.472;30.760;2023-06-14T08:20:05;77012.56;;;-146.33
37414;BMP280;23279;46.472;30.760;2023-06-14T08:22:31;76982.06;;;-146.33
37414;BMP280;23279;46.472;30.760;2023-06-14T08:24:59;76963.75;;;-146.33
37414;BMP280;23279;46.472;30.760;2023-06-14T08:27:26;76951.53;;;-146.33
37414;BMP280;23279;46.472;30.760;2023-06-14T08:29:51;76941.38;;;-146.33
37414;BMP280;23279;46.472;30.760;2023-06-14T08:32:17;76957.66;;;-146.33
37414;BMP280;23279;46.472;30.760;2023-06-14T08:34:42;76933.22;;;-146.33
37414;BMP280;23279;46.472;30.760;2023-06-14T08:37:08;76912.88;;;-146.33
37414;BMP280;23279;46.472;30.760;2023-06-14T08:39:33;76904.75;;;-146.33
37414;BMP280;23279;46.472;30.760;2023-06-14T08:42:01;76896.63;;;-146.33
37414;BMP280;23279;46.472;30.760;2023-06-14T08:44:28;76935.28;;;-146.33
37414;BMP280;23279;46.472;30.760;2023-06-14T08:46:55;76916.97;;;-146.33
37414;BMP280;23279;46.472;30.760;2023-06-14T08:49:22;76904.75;;;-146.33
37414;BMP280;23279;46.472;30.760;2023-06-14T08:52:00;76884.41;;;-146.33
37414;BMP280;23279;46.472;30.760;2023-06-14T08:54:27;76864.06;;;-146.33
37414;BMP280;23279;46.472;30.760;2023-06-14T08:56:55;76849.84;;;-146.33
37414;BMP280;23279;46.472;30.760;2023-06-14T08:59:25;76851.88;;;-146.33
37414;BMP280;23279;46.472;30.760;2023-06-14T09:01:52;76864.06;;;-146.33
37414;BMP280;23279;46.472;30.760;2023-06-14T09:04:21;76908.81;;;-146.33
37414;BMP280;23279;46.472;30.760;2023-06-14T09:06:56;76890.50;;;-146.33
37414;BMP280;23279;46.472;30.760;2023-06-14T09:09:22;76892.53;;;-146.33
37414;BMP280;23279;46.472;30.760;2023-06-14T09:11:54;76884.41;;;-146.33
37414;BMP280;23279;46.472;30.760;2023-06-14T09:14:21;76880.34;;;-146.33
37414;BMP280;23279;46.472;30.760;2023-06-14T09:16:46;76894.59;;;-146.33
37414;BMP280;23279;46.472;30.760;2023-06-14T09:19:21;76872.22;;;-146.33
37414;BMP280;23279;46.472;30.760;2023-06-14T09:21:48;76851.88;;;-146.33
37414;BMP280;23279;46.472;30.760;2023-06-14T09:24:14;76849.84;;;-146.33
37414;BMP280;23279;46.472;30.760;2023-06-14T09:26:39;76874.25;;;-146.33
37414;BMP280;23279;46.472;30.760;2023-06-14T09:29:05;76872.22;;;-146.33
37414;BMP280;23279;46.472;30.760;2023-06-14T09:31:31;76890.50;;;-146.33
37414;BMP280;23279;46.472;30.760;2023-06-14T09:33:58;76866.09;;;-146.33
37414;BMP280;23279;46.472;30.760;2023-06-14T09:36:25;76833.56;;;-146.33
37414;BMP280;23279;46.472;30.760;2023-06-14T09:39:01;76829.50;;;-146.33
37414;BMP280;23279;46.472;30.760;2023-06-14T09:41:33;76851.88;;;-146.33
37414;BMP280;23279;46.472;30.760;2023-06-14T09:44:00;76843.72;;;-146.33
37414;BMP280;23279;46.472;30.760;2023-06-14T09:46:29;76809.16;;;-146.33
37414;BMP280;23279;46.472;30.760;2023-06-14T09:48:55;76831.53;;;-146.33
37414;BMP280;23279;46.472;30.760;2023-06-14T09:51:22;76807.13;;;-146.33
37414;BMP280;23279;46.472;30.760;2023-06-14T09:53:51;76770.50;;;-146.33
37414;BMP280;23279;46.472;30.760;2023-06-14T09:56:31;76792.88;;;-146.33
37414;BMP280;23279;46.472;30.760;2023-06-14T09:58:59;76774.56;;;-146.33
37414;BMP280;23279;46.472;30.760;2023-06-14T10:01:26;76770.50;;;-146.33
37414;BMP280;23279;46.472;30.760;2023-06-14T10:04:02;76766.44;;;-146.33
37414;BMP280;23279;46.472;30.760;2023-06-14T10:06:29;76758.31;;;-146.33
37414;BMP280;23279;46.472;30.760;2023-06-14T10:08:57;76740.00;;;-146.33
37414;BMP280;23279;46.472;30.760;2023-06-14T10:11:25;76729.81;;;-146.33
37414;BMP280;23279;46.472;30.760;2023-06-14T10:13:51;76764.41;;;-146.33
37414;BMP280;23279;46.472;30.760;2023-06-14T10:16:27;76770.50;;;-146.33
37414;BMP280;23279;46.472;30.760;2023-06-14T10:21:49;76803.06;;;-146.33
37414;BMP280;23279;46.472;30.760;2023-06-14T10:24:19;76790.84;;;-146.33
37414;BMP280;23279;46.472;30.760;2023-06-14T10:26:52;76805.09;;;-146.33
37414;BMP280;23279;46.472;30.760;2023-06-14T10:29:18;76784.75;;;-146.33
37414;BMP280;23279;46.472;30.760;2023-06-14T10:31:48;76764.41;;;-146.33
37414;BMP280;23279;46.472;30.760;2023-06-14T10:37:06;76766.44;;;-146.33
37414;BMP280;23279;46.472;30.760;2023-06-14T10:39:37;76748.13;;;-146.33
37414;BMP280;23279;46.472;30.760;2023-06-14T10:42:03;76725.75;;;-146.33
37414;BMP280;23279;46.472;30.760;2023-06-14T10:46:58;76754.22;;;-146.33
37414;BMP280;23279;46.472;30.760;2023-06-14T10:49:43;76735.94;;;-146.33
37414;BMP280;23279;46.472;30.760;2023-06-14T10:52:11;76737.97;;;-146.33
37414;BMP280;23279;46.472;30.760;2023-06-14T10:57:29;76689.16;;;-146.33
37414;BMP280;23279;46.472;30.760;2023-06-14T10:59:58;76678.97;;;-146.33
37414;BMP280;23279;46.472;30.760;2023-06-14T11:05:49;76593.56;;;-146.33
37414;BMP280;23279;46.472;30.760;2023-06-14T11:10:50;76628.13;;;-146.33
37414;BMP280;23279;46.472;30.760;2023-06-14T11:13:16;76624.06;;;-146.33
37414;BMP280;23279;46.472;30.760;2023-06-14T11:15:46;76620.00;;;-146.33
37414;BMP280;23279;46.472;30.760;2023-06-14T11:18:13;76609.81;;;-146.33
37414;BMP280;23279;46.472;30.760;2023-06-14T11:20:39;76638.28;;;-146.33
37414;BMP280;23279;46.472;30.760;2023-06-14T11:23:05;76644.41;;;-146.33
37414;BMP280;23279;46.472;30.760;2023-06-14T11:25:30;76660.66;;;-146.33
37414;BMP280;23279;46.472;30.760;2023-06-14T11:27:57;76648.47;;;-146.33
37414;BMP280;23279;46.472;30.760;2023-06-14T11:30:23;76638.28;;;-146.33
37414;BMP280;23279;46.472;30.760;2023-06-14T11:32:49;76644.41;;;-146.33
37414;BMP280;23279;46.472;30.760;2023-06-14T11:35:21;76607.78;;;-146.33
37414;BMP280;23279;46.472;30.760;2023-06-14T11:37:48;76644.41;;;-146.33
37414;BMP280;23279;46.472;30.760;2023-06-14T11:40:14;76611.84;;;-146.33
37414;BMP280;23279;46.472;30.760;2023-06-14T11:42:41;76634.22;;;-146.33
37414;BMP280;23279;46.472;30.760;2023-06-14T11:45:11;76613.88;;;-146.33
37414;BMP280;23279;46.472;30.760;2023-06-14T11:47:38;76607.78;;;-146.33
37414;BMP280;23279;46.472;30.760;2023-06-14T11:50:06;76642.38;;;-146.33
37414;BMP280;23279;46.472;30.760;2023-06-14T11:52:32;76640.34;;;-146.33
37414;BMP280;23279;46.472;30.760;2023-06-14T11:54:58;76636.25;;;-146.33
37414;BMP280;23279;46.472;30.760;2023-06-14T11:57:24;76658.63;;;-146.33
37414;BMP280;23279;46.472;30.760;2023-06-14T11:59:50;76662.72;;;-146.33
37414;BMP280;23279;46.472;30.760;2023-06-14T12:02:16;76721.69;;;-146.33
37414;BMP280;23279;46.472;30.760;2023-06-14T12:04:43;76689.16;;;-146.33
37414;BMP280;23279;46.472;30.760;2023-06-14T12:07:15;76664.75;;;-146.33
37414;BMP280;23279;46.472;30.760;2023-06-14T12:09:46;76660.66;;;-146.33
37414;BMP280;23279;46.472;30.760;2023-06-14T12:12:36;76640.34;;;-146.33
37414;BMP280;23279;46.472;30.760;2023-06-14T12:15:07;76628.13;;;-146.33
37414;BMP280;23279;46.472;30.760;2023-06-14T12:17:36;76624.06;;;-146.33
37414;BMP280;23279;46.472;30.760;2023-06-14T12:20:08;76644.41;;;-146.33
37414;BMP280;23279;46.472;30.760;2023-06-14T12:22:59;76654.56;;;-146.33
37414;BMP280;23279;46.472;30.760;2023-06-14T12:25:27;76620.00;;;-146.33
37414;BMP280;23279;46.472;30.760;2023-06-14T12:27:54;76587.44;;;-146.33
37414;BMP280;23279;46.472;30.760;2023-06-14T12:30:20;76546.78;;;-146.33
37414;BMP280;23279;46.472;30.760;2023-06-14T12:32:45;76524.41;;;-146.33
37414;BMP280;23279;46.472;30.760;2023-06-14T12:35:11;76573.22;;;-146.33
37414;BMP280;23279;46.472;30.760;2023-06-14T12:37:36;76518.28;;;-146.33
37414;BMP280;23279;46.472;30.760;2023-06-14T12:40:02;76522.38;;;-146.33
37414;BMP280;23279;46.472;30.760;2023-06-14T12:42:31;76502.03;;;-146.33
37414;BMP280;23279;46.472;30.760;2023-06-14T12:44:56;76500.00;;;-146.33
37414;BMP280;23279;46.472;30.760;2023-06-14T12:47:22;76516.25;;;-146.33
37414;BMP280;23279;46.472;30.760;2023-06-14T12:49:47;76500.00;;;-146.33
37414;BMP280;23279;46.472;30.760;2023-06-14T12:52:12;76522.38;;;-146.33
37414;BMP280;23279;46.472;30.760;2023-06-14T12:54:38;76554.91;;;-146.33
37414;BMP280;23279;46.472;30.760;2023-06-14T12:57:05;76575.25;;;-146.33
37414;BMP280;23279;46.472;30.760;2023-06-14T12:59:31;76587.44;;;-146.33
37414;BMP280;23279;46.472;30.760;2023-06-14T13:02:09;76611.84;;;-146.33
37414;BMP280;23279;46.472;30.760;2023-06-14T13:04:35;76644.41;;;-146.33
37414;BMP280;23279;46.472;30.760;2023-06-14T13:07:00;76699.31;;;-146.33
37414;BMP280;23279;46.472;30.760;2023-06-14T13:09:25;76709.50;;;-146.33
37414;BMP280;23279;46.472;30.760;2023-06-14T13:11:52;76742.03;;;-146.33
37414;BMP280;23279;46.472;30.760;2023-06-14T13:14:17;76766.44;;;-146.33
37414;BMP280;23279;46.472;30.760;2023-06-14T13:16:42;76786.78;;;-146.33
37414;BMP280;23279;46.472;30.760;2023-06-14T13:19:08;76809.16;;;-146.33
37414;BMP280;23279;46.472;30.760;2023-06-14T13:21:33;76831.53;;;-146.33
37414;BMP280;23279;46.472;30.760;2023-06-14T13:23:59;76827.47;;;-146.33
37414;BMP280;23279;46.472;30.760;2023-06-14T13:26:24;76827.47;;;-146.33
37414;BMP280;23279;46.472;30.760;2023-06-14T13:28:50;76809.16;;;-146.33
37414;BMP280;23279;46.472;30.760;2023-06-14T13:31:16;76805.09;;;-146.33
37414;BMP280;23279;46.472;30.760;2023-06-14T13:33:41;76786.78;;;-146.33
37414;BMP280;23279;46.472;30.760;2023-06-14T13:36:07;76778.63;;;-146.33
37414;BMP280;23279;46.472;30.760;2023-06-14T13:38:32;76774.56;;;-146.33
37414;BMP280;23279;46.472;30.760;2023-06-14T13:40:58;76762.38;;;-146.33
37414;BMP280;23279;46.472;30.760;2023-06-14T13:43:23;76750.16;;;-146.33
37414;BMP280;23279;46.472;30.760;2023-06-14T13:45:49;76742.03;;;-146.33
37414;BMP280;23279;46.472;30.760;2023-06-14T13:48:14;76717.63;;;-146.33